Time;durP1;ratioP1;P1;durP2;ratioP2;P2;SDS_P1;SDS_P2;PMS_P1;PMS_P2;Temp;Humidity;BMP_temperature;BMP_pressure;BME280_temperature;BME280_humidity;BME280_pressure;Samples;Min_cycle;Max_cycle;Signal;HPM_P1;HPM_P2
2022/09/22 00:00:15;;;;;;;;;;;4.20;99.90;;;;;;5042985;28;19913;-80
2022/09/22 00:02:41;;;;;;;;;;;4.30;99.90;;;;;;5041261;28;20347;-80
2022/09/22 00:05:07;;;;;;;;;;;4.40;99.90;;;;;;5026205;28;20361;-81
2022/09/22 00:07:33;;;;;;;;;;;4.40;99.90;;;;;;5031664;28;20375;-83
2022/09/22 00:09:58;;;;;;;;;;;4.50;99.90;;;;;;5043577;28;20000;-82
2022/09/22 00:12:24;;;;;;;;;;;4.50;99.90;;;;;;5053129;28;20042;-82
2022/09/22 00:14:50;;;;;;;;;;;4.40;99.90;;;;;;5041570;28;19917;-80
2022/09/22 00:17:15;;;;;;;;;;;4.50;99.90;;;;;;5040569;28;19909;-82
2022/09/22 00:19:41;;;;;;;;;;;4.50;99.90;;;;;;5041370;28;20439;-81
2022/09/22 00:22:06;;;;;;;;;;;4.50;99.90;;;;;;5047727;28;20340;-81
2022/09/22 00:24:33;;;;;;;;;;;4.40;99.90;;;;;;5044430;28;19916;-82
2022/09/22 00:26:58;;;;;;;;;;;4.40;99.90;;;;;;5045367;28;20376;-79
2022/09/22 00:29:25;;;;;;;;;;;4.30;99.90;;;;;;5040643;28;19928;-81
2022/09/22 00:31:50;;;;;;;;;;;4.20;99.90;;;;;;5049926;28;19921;-81
2022/09/22 00:34:18;;;;;;;;;;;4.10;99.90;;;;;;5047851;28;19991;-82
2022/09/22 00:36:43;;;;;;;;;;;4.00;99.90;;;;;;5039023;28;19991;-81
2022/09/22 00:39:09;;;;;;;;;;;4.10;99.90;;;;;;5039510;28;19996;-82
2022/09/22 00:41:36;;;;;;;;;;;4.10;99.90;;;;;;5048117;28;20774;-82
2022/09/22 00:44:14;;;;;;;;;;;4.20;99.90;;;;;;5062295;28;19945;-82
2022/09/22 00:46:42;;;;;;;;;;;4.30;99.90;;;;;;5050890;28;20378;-82
2022/09/22 00:49:08;;;;;;;;;;;4.30;99.90;;;;;;5060843;28;19994;-82
2022/09/22 00:51:36;;;;;;;;;;;4.20;99.90;;;;;;5049994;28;19917;-82
2022/09/22 00:54:03;;;;;;;;;;;4.20;99.90;;;;;;5035190;28;19913;-82
2022/09/22 00:56:33;;;;;;;;;;;4.20;99.90;;;;;;5049159;28;19999;-82
2022/09/22 00:59:00;;;;;;;;;;;4.10;99.90;;;;;;5050974;28;20344;-83
2022/09/22 01:01:26;;;;;;;;;;;4.10;99.90;;;;;;5037683;28;20008;-83
2022/09/22 01:03:53;;;;;;;;;;;4.00;99.90;;;;;;5047451;28;20506;-81
2022/09/22 01:06:21;;;;;;;;;;;4.00;99.90;;;;;;5052332;28;19931;-82
2022/09/22 01:08:47;;;;;;;;;;;4.00;99.90;;;;;;5051235;28;20461;-83
2022/09/22 01:11:14;;;;;;;;;;;3.90;99.90;;;;;;5044019;28;19948;-81
2022/09/22 01:13:42;;;;;;;;;;;3.90;99.90;;;;;;5051649;28;19919;-82
2022/09/22 01:16:23;;;;;;;;;;;3.90;99.90;;;;;;5043728;28;19909;-83
2022/09/22 01:18:57;;;;;;;;;;;4.00;99.90;;;;;;5045679;28;19909;-82
2022/09/22 01:21:28;;;;;;;;;;;3.90;99.90;;;;;;5042411;28;20376;-81
2022/09/22 01:24:05;;;;;;;;;;;3.80;99.90;;;;;;5038225;28;19963;-81
2022/09/22 01:26:50;;;;;;;;;;;3.70;99.90;;;;;;5047769;28;20300;-82
2022/09/22 01:29:24;;;;;;;;;;;3.70;99.90;;;;;;5038198;28;19913;-82
2022/09/22 01:32:01;;;;;;;;;;;3.60;99.90;;;;;;5036060;28;19928;-82
2022/09/22 01:34:40;;;;;;;;;;;3.60;99.90;;;;;;5049040;28;19909;-81
2022/09/22 01:37:16;;;;;;;;;;;3.50;99.90;;;;;;5044728;28;20281;-82
2022/09/22 01:39:44;;;;;;;;;;;3.30;99.90;;;;;;5048027;28;20439;-82
2022/09/22 01:42:15;;;;;;;;;;;3.20;99.90;;;;;;5047053;28;19920;-83
2022/09/22 01:44:55;;;;;;;;;;;3.20;99.90;;;;;;5036787;28;20007;-83
2022/09/22 01:47:26;;;;;;;;;;;3.20;99.90;;;;;;5048168;28;19920;-83
2022/09/22 01:49:53;;;;;;;;;;;3.20;99.90;;;;;;5046710;28;19952;-81
2022/09/22 01:52:22;;;;;;;;;;;3.20;99.90;;;;;;5042384;28;20413;-82
2022/09/22 01:54:57;;;;;;;;;;;3.20;99.90;;;;;;5020861;28;19920;-82
2022/09/22 01:57:26;;;;;;;;;;;3.40;99.90;;;;;;5037601;28;20452;-81
2022/09/22 01:59:57;;;;;;;;;;;3.50;99.90;;;;;;5045985;28;19912;-83
2022/09/22 02:02:26;;;;;;;;;;;3.40;99.90;;;;;;5050295;28;19920;-81
2022/09/22 02:04:55;;;;;;;;;;;3.40;99.90;;;;;;5045444;28;20418;-79
2022/09/22 02:07:27;;;;;;;;;;;3.40;99.90;;;;;;5043418;28;19952;-84
2022/09/22 02:09:54;;;;;;;;;;;3.40;99.90;;;;;;5050701;28;19919;-83
2022/09/22 02:12:19;;;;;;;;;;;3.50;99.90;;;;;;5046215;28;19917;-81
2022/09/22 02:14:45;;;;;;;;;;;3.60;99.90;;;;;;5049612;28;19919;-82
2022/09/22 02:17:12;;;;;;;;;;;3.70;99.90;;;;;;5047828;28;20020;-83
2022/09/22 02:19:39;;;;;;;;;;;3.70;99.90;;;;;;5048079;28;20387;-82
2022/09/22 02:22:06;;;;;;;;;;;3.70;99.90;;;;;;5049495;28;19917;-82
2022/09/22 02:24:33;;;;;;;;;;;3.70;99.90;;;;;;5050541;28;19917;-83
2022/09/22 02:27:00;;;;;;;;;;;3.50;99.90;;;;;;5044076;28;20351;-82
2022/09/22 02:29:28;;;;;;;;;;;3.50;99.90;;;;;;5032886;28;19966;-82
2022/09/22 02:31:54;;;;;;;;;;;3.50;99.90;;;;;;5049506;28;19916;-82
2022/09/22 02:34:21;;;;;;;;;;;3.50;99.90;;;;;;5045896;28;20342;-81
2022/09/22 02:36:55;;;;;;;;;;;3.40;99.90;;;;;;5049933;28;19919;-81
2022/09/22 02:39:39;;;;;;;;;;;3.40;99.90;;;;;;5037033;28;19916;-81
2022/09/22 02:42:08;;;;;;;;;;;3.40;99.90;;;;;;5044603;28;19943;-82
2022/09/22 02:44:44;;;;;;;;;;;3.40;99.90;;;;;;5043946;28;19909;-83
2022/09/22 02:47:12;;;;;;;;;;;3.40;99.90;;;;;;5038519;28;19909;-79
2022/09/22 02:49:38;;;;;;;;;;;3.30;99.90;;;;;;5041719;28;19960;-82
2022/09/22 02:52:07;;;;;;;;;;;3.40;99.90;;;;;;5049108;28;19944;-83
2022/09/22 02:54:33;;;;;;;;;;;3.30;99.90;;;;;;5049130;28;19959;-82
2022/09/22 02:56:58;;;;;;;;;;;3.50;99.90;;;;;;5051121;28;19909;-83
2022/09/22 02:59:24;;;;;;;;;;;3.40;99.90;;;;;;5047379;28;19913;-83
2022/09/22 03:01:49;;;;;;;;;;;3.50;99.90;;;;;;5043455;28;19924;-82
2022/09/22 03:04:15;;;;;;;;;;;3.40;99.90;;;;;;5041769;28;19967;-82
2022/09/22 03:06:40;;;;;;;;;;;3.40;99.90;;;;;;5048630;28;20342;-82
2022/09/22 03:09:06;;;;;;;;;;;3.40;99.90;;;;;;5046925;28;19920;-82
2022/09/22 03:11:31;;;;;;;;;;;3.30;99.90;;;;;;5045914;28;20016;-82
2022/09/22 03:13:57;;;;;;;;;;;3.30;99.90;;;;;;5049361;28;19924;-83
2022/09/22 03:16:22;;;;;;;;;;;3.30;99.90;;;;;;5047337;28;19912;-82
2022/09/22 03:18:48;;;;;;;;;;;3.30;99.90;;;;;;5047399;28;20349;-82
2022/09/22 03:21:14;;;;;;;;;;;3.30;99.90;;;;;;5043611;28;19951;-80
2022/09/22 03:23:39;;;;;;;;;;;3.20;99.90;;;;;;5039594;28;20352;-81
2022/09/22 03:26:05;;;;;;;;;;;3.20;99.90;;;;;;5043501;28;19920;-81
2022/09/22 03:28:30;;;;;;;;;;;3.20;99.90;;;;;;5047740;28;19917;-82
2022/09/22 03:30:56;;;;;;;;;;;3.10;99.90;;;;;;5036163;28;19967;-84
2022/09/22 03:33:21;;;;;;;;;;;3.10;99.90;;;;;;5048851;28;19919;-81
2022/09/22 03:35:47;;;;;;;;;;;3.20;99.90;;;;;;5049278;28;20469;-82
2022/09/22 03:38:12;;;;;;;;;;;3.10;99.90;;;;;;5036434;28;20016;-83
2022/09/22 03:40:38;;;;;;;;;;;3.10;99.90;;;;;;5046425;28;20308;-82
2022/09/22 03:43:03;;;;;;;;;;;3.20;99.90;;;;;;5045802;28;19964;-81
2022/09/22 03:45:29;;;;;;;;;;;3.20;99.90;;;;;;5049012;28;19944;-82
2022/09/22 03:47:54;;;;;;;;;;;3.20;99.90;;;;;;5043519;28;19962;-83
2022/09/22 03:50:20;;;;;;;;;;;3.30;99.90;;;;;;5048667;28;19913;-81
2022/09/22 03:52:46;;;;;;;;;;;3.20;99.90;;;;;;5046266;28;19916;-80
2022/09/22 03:55:11;;;;;;;;;;;3.30;99.90;;;;;;5040252;28;19923;-82
2022/09/22 03:57:37;;;;;;;;;;;3.40;99.90;;;;;;5040624;28;19930;-82
2022/09/22 04:00:04;;;;;;;;;;;3.40;99.90;;;;;;5049258;28;19914;-82
2022/09/22 04:02:29;;;;;;;;;;;3.40;99.90;;;;;;5048276;28;19917;-84
2022/09/22 04:04:55;;;;;;;;;;;3.40;99.90;;;;;;5047815;28;19919;-80
2022/09/22 04:07:20;;;;;;;;;;;3.40;99.90;;;;;;5034044;28;20107;-83
2022/09/22 04:09:46;;;;;;;;;;;3.40;99.90;;;;;;5048667;28;19928;-83
2022/09/22 04:12:11;;;;;;;;;;;3.30;99.90;;;;;;5038617;28;20383;-82
2022/09/22 04:14:37;;;;;;;;;;;3.40;99.90;;;;;;5045181;28;19966;-82
2022/09/22 04:17:03;;;;;;;;;;;3.30;99.90;;;;;;5048563;28;19971;-82
2022/09/22 04:19:34;;;;;;;;;;;3.30;99.90;;;;;;5044187;28;19936;-84
2022/09/22 04:22:00;;;;;;;;;;;3.30;99.90;;;;;;5044776;28;19912;-82
2022/09/22 04:24:26;;;;;;;;;;;3.30;99.90;;;;;;5037435;28;19916;-83
2022/09/22 04:26:51;;;;;;;;;;;3.30;99.90;;;;;;5051951;28;19917;-81
2022/09/22 04:29:17;;;;;;;;;;;3.30;99.90;;;;;;5036591;28;19913;-83
2022/09/22 04:31:42;;;;;;;;;;;3.30;99.90;;;;;;5039711;28;19924;-82
2022/09/22 04:34:08;;;;;;;;;;;3.30;99.90;;;;;;5048202;28;19909;-82
2022/09/22 04:36:33;;;;;;;;;;;3.30;99.90;;;;;;5035640;28;20288;-83
2022/09/22 04:39:01;;;;;;;;;;;3.30;99.90;;;;;;5047993;28;19924;-83
2022/09/22 04:41:27;;;;;;;;;;;3.20;99.90;;;;;;5043637;28;20411;-82
2022/09/22 04:43:52;;;;;;;;;;;3.30;99.90;;;;;;5033217;28;19929;-84
2022/09/22 04:46:18;;;;;;;;;;;3.20;99.90;;;;;;5046301;28;19923;-81
2022/09/22 04:48:43;;;;;;;;;;;3.20;99.90;;;;;;5037880;28;19991;-82
2022/09/22 04:51:09;;;;;;;;;;;3.20;99.90;;;;;;5032847;28;19917;-81
2022/09/22 04:53:34;;;;;;;;;;;3.20;99.90;;;;;;5035839;28;20511;-81
2022/09/22 04:56:00;;;;;;;;;;;3.10;99.90;;;;;;5049440;28;20281;-82
2022/09/22 04:58:25;;;;;;;;;;;3.10;99.90;;;;;;5048514;28;19912;-79
2022/09/22 05:00:54;;;;;;;;;;;3.10;99.90;;;;;;5036260;28;20372;-78
2022/09/22 05:03:20;;;;;;;;;;;3.10;99.90;;;;;;5041301;28;20295;-79
2022/09/22 05:05:48;;;;;;;;;;;3.10;99.90;;;;;;5036464;28;19917;-80
2022/09/22 05:08:15;;;;;;;;;;;3.10;99.90;;;;;;5018817;28;19917;-80
2022/09/22 05:10:41;;;;;;;;;;;3.10;99.90;;;;;;5034978;28;19924;-80
2022/09/22 05:13:06;;;;;;;;;;;3.20;99.90;;;;;;5038200;28;19940;-82
2022/09/22 05:15:33;;;;;;;;;;;3.20;99.90;;;;;;5045692;28;20049;-82
2022/09/22 05:17:58;;;;;;;;;;;3.10;99.90;;;;;;5048032;28;19912;-82
2022/09/22 05:20:24;;;;;;;;;;;3.10;99.90;;;;;;5053715;28;20371;-82
2022/09/22 05:22:51;;;;;;;;;;;3.10;99.90;;;;;;5042357;28;19979;-82
2022/09/22 05:25:18;;;;;;;;;;;3.10;99.90;;;;;;5032449;28;19916;-83
2022/09/22 05:27:47;;;;;;;;;;;3.10;99.90;;;;;;5037784;28;20454;-83
2022/09/22 05:30:13;;;;;;;;;;;3.20;99.90;;;;;;5035828;28;19930;-82
2022/09/22 05:32:40;;;;;;;;;;;3.20;99.90;;;;;;5042537;28;19917;-83
2022/09/22 05:35:06;;;;;;;;;;;3.20;99.90;;;;;;5037508;28;19998;-83
2022/09/22 05:37:31;;;;;;;;;;;3.20;99.90;;;;;;5042077;28;19944;-80
2022/09/22 05:39:57;;;;;;;;;;;3.20;99.90;;;;;;5048903;28;19944;-78
2022/09/22 05:42:22;;;;;;;;;;;3.30;99.90;;;;;;5038999;28;20306;-86
2022/09/22 05:44:48;;;;;;;;;;;3.30;99.90;;;;;;5018602;28;19928;-87
2022/09/22 05:47:13;;;;;;;;;;;3.30;99.90;;;;;;5041463;28;19943;-84
2022/09/22 05:49:39;;;;;;;;;;;3.30;99.90;;;;;;5049188;28;19912;-86
2022/09/22 05:52:05;;;;;;;;;;;3.40;99.90;;;;;;5047212;28;19924;-86
2022/09/22 05:54:30;;;;;;;;;;;3.40;99.90;;;;;;5069945;28;20143;-83
2022/09/22 05:56:56;;;;;;;;;;;3.50;99.90;;;;;;5053991;28;19924;-85
2022/09/22 05:59:21;;;;;;;;;;;3.50;99.90;;;;;;5039412;28;19924;-84
2022/09/22 06:01:47;;;;;;;;;;;3.50;99.90;;;;;;5038840;28;19929;-82
2022/09/22 06:04:12;;;;;;;;;;;3.50;99.90;;;;;;5043050;28;19940;-79
2022/09/22 06:06:38;;;;;;;;;;;3.60;99.90;;;;;;5045428;28;19971;-78
2022/09/22 06:09:03;;;;;;;;;;;3.70;99.90;;;;;;5048124;28;19941;-78
2022/09/22 06:11:29;;;;;;;;;;;3.70;99.90;;;;;;5047314;28;19920;-78
2022/09/22 06:13:54;;;;;;;;;;;3.80;99.90;;;;;;5036069;28;20470;-80
2022/09/22 06:16:20;;;;;;;;;;;3.90;99.90;;;;;;5048202;28;20451;-79
2022/09/22 06:18:46;;;;;;;;;;;3.90;99.90;;;;;;5038475;28;19916;-81
2022/09/22 06:21:12;;;;;;;;;;;3.90;99.90;;;;;;5046975;28;19921;-78
2022/09/22 06:23:38;;;;;;;;;;;4.00;99.90;;;;;;5057705;28;19923;-78
2022/09/22 06:26:04;;;;;;;;;;;4.10;99.90;;;;;;5049814;28;19956;-78
2022/09/22 06:28:30;;;;;;;;;;;4.10;99.90;;;;;;5050093;28;19959;-79
2022/09/22 06:30:57;;;;;;;;;;;4.10;99.90;;;;;;5054796;28;19916;-78
2022/09/22 06:33:23;;;;;;;;;;;4.20;99.90;;;;;;5047157;28;19931;-77
2022/09/22 06:35:48;;;;;;;;;;;4.30;99.90;;;;;;5036894;28;19920;-77
2022/09/22 06:38:14;;;;;;;;;;;4.30;99.90;;;;;;5048412;28;19920;-79
2022/09/22 06:40:40;;;;;;;;;;;4.40;99.90;;;;;;5039067;28;19944;-78
2022/09/22 06:43:10;;;;;;;;;;;4.50;99.90;;;;;;5049738;28;19940;-77
2022/09/22 06:45:36;;;;;;;;;;;4.50;99.90;;;;;;5036866;28;19917;-79
2022/09/22 06:48:02;;;;;;;;;;;4.60;99.90;;;;;;5039894;28;19956;-79
2022/09/22 06:50:30;;;;;;;;;;;4.70;99.90;;;;;;5044162;28;19960;-80
2022/09/22 06:52:58;;;;;;;;;;;4.60;99.90;;;;;;5046846;28;20292;-79
2022/09/22 06:55:23;;;;;;;;;;;4.70;99.90;;;;;;5042508;28;19956;-77
2022/09/22 06:57:50;;;;;;;;;;;4.80;99.90;;;;;;5049302;28;19952;-78
2022/09/22 07:00:16;;;;;;;;;;;4.80;99.90;;;;;;5049130;28;19956;-79
2022/09/22 07:02:42;;;;;;;;;;;4.80;99.90;;;;;;5041318;28;19928;-77
2022/09/22 07:05:07;;;;;;;;;;;4.90;99.90;;;;;;5041164;28;19920;-78
2022/09/22 07:07:33;;;;;;;;;;;5.00;99.90;;;;;;5033748;28;20368;-77
2022/09/22 07:09:58;;;;;;;;;;;5.10;99.90;;;;;;5047239;28;19913;-77
2022/09/22 07:12:25;;;;;;;;;;;5.20;99.90;;;;;;5045210;28;20034;-78
2022/09/22 07:14:52;;;;;;;;;;;5.20;99.90;;;;;;5046934;28;20011;-77
2022/09/22 07:17:19;;;;;;;;;;;5.30;99.90;;;;;;5048897;28;20376;-77
2022/09/22 07:19:45;;;;;;;;;;;5.30;99.90;;;;;;5048156;28;19960;-78
2022/09/22 07:22:15;;;;;;;;;;;5.40;99.90;;;;;;5036202;28;20458;-78
2022/09/22 07:24:44;;;;;;;;;;;5.50;99.90;;;;;;5046226;28;19917;-79
2022/09/22 07:27:09;;;;;;;;;;;5.50;99.90;;;;;;5049480;28;19952;-78
2022/09/22 07:29:38;;;;;;;;;;;5.60;99.90;;;;;;5035045;28;20376;-77
2022/09/22 07:32:04;;;;;;;;;;;5.60;99.90;;;;;;5047889;28;19999;-78
2022/09/22 07:34:29;;;;;;;;;;;5.80;99.90;;;;;;5049119;28;20439;-77
2022/09/22 07:36:55;;;;;;;;;;;5.90;99.90;;;;;;5047863;28;19916;-76
2022/09/22 07:39:22;;;;;;;;;;;6.00;99.90;;;;;;5042782;28;19912;-77
2022/09/22 07:41:47;;;;;;;;;;;6.10;99.90;;;;;;5048838;28;19946;-77
2022/09/22 07:46:57;;;;;;;;;;;6.10;99.90;;;;;;5044887;28;20386;-77
2022/09/22 07:49:23;;;;;;;;;;;6.20;99.90;;;;;;5039470;28;19913;-77
2022/09/22 07:51:48;;;;;;;;;;;6.30;99.90;;;;;;5048305;28;20307;-78
2022/09/22 07:54:14;;;;;;;;;;;6.40;99.90;;;;;;5046415;28;19923;-77
2022/09/22 07:56:41;;;;;;;;;;;6.60;99.90;;;;;;5044463;28;19924;-77
2022/09/22 07:59:08;;;;;;;;;;;6.60;99.90;;;;;;5035082;28;19952;-78
2022/09/22 08:01:34;;;;;;;;;;;6.80;99.90;;;;;;5048331;28;19920;-78
2022/09/22 08:04:00;;;;;;;;;;;6.90;99.90;;;;;;5042095;28;20427;-77
2022/09/22 08:06:26;;;;;;;;;;;7.00;99.90;;;;;;5047708;28;20292;-77
2022/09/22 08:08:55;;;;;;;;;;;7.10;99.90;;;;;;5040008;28;20088;-77
2022/09/22 08:11:22;;;;;;;;;;;7.20;99.90;;;;;;5048900;28;19928;-77
2022/09/22 08:14:08;;;;;;;;;;;7.30;99.90;;;;;;5048799;28;19916;-77
2022/09/22 08:16:34;;;;;;;;;;;7.40;99.90;;;;;;5048651;28;20287;-77
2022/09/22 08:19:01;;;;;;;;;;;7.60;99.90;;;;;;5039813;28;20003;-77
2022/09/22 08:21:31;;;;;;;;;;;7.80;99.90;;;;;;5031974;28;20695;-77
2022/09/22 08:23:59;;;;;;;;;;;8.10;99.90;;;;;;5047354;28;19944;-77
2022/09/22 08:26:25;;;;;;;;;;;8.30;99.90;;;;;;5040004;28;19909;-77
2022/09/22 08:28:54;;;;;;;;;;;8.40;99.90;;;;;;5049420;28;19916;-77
2022/09/22 08:31:20;;;;;;;;;;;8.40;99.90;;;;;;5047459;28;19916;-77
2022/09/22 08:33:47;;;;;;;;;;;8.50;99.90;;;;;;5049047;28;20588;-77
2022/09/22 08:36:13;;;;;;;;;;;8.90;99.90;;;;;;5052485;28;19992;-78
2022/09/22 08:38:38;;;;;;;;;;;9.10;99.90;;;;;;5044365;28;20051;-77
2022/09/22 08:41:04;;;;;;;;;;;9.20;99.90;;;;;;5041629;28;19952;-77
2022/09/22 08:43:30;;;;;;;;;;;9.30;99.90;;;;;;5038548;28;19921;-77
2022/09/22 08:45:56;;;;;;;;;;;9.40;99.90;;;;;;5042452;28;20306;-77
2022/09/22 08:54:04;;;;;;;;;;;10.00;99.90;;;;;;5044605;28;19975;-77
2022/09/22 08:56:39;;;;;;;;;;;10.30;99.90;;;;;;5048061;28;19909;-77
2022/09/22 08:59:14;;;;;;;;;;;10.40;99.90;;;;;;5049509;28;19948;-77
2022/09/22 09:01:41;;;;;;;;;;;10.50;99.90;;;;;;5039323;28;20055;-76
2022/09/22 09:04:20;;;;;;;;;;;10.80;99.90;;;;;;5045286;28;20287;-76
2022/09/22 09:07:06;;;;;;;;;;;11.10;99.90;;;;;;5052256;28;19920;-77
2022/09/22 09:09:32;;;;;;;;;;;11.30;99.90;;;;;;5050556;28;19923;-77
2022/09/22 09:12:02;;;;;;;;;;;11.40;99.20;;;;;;5051354;28;20435;-77
2022/09/22 09:14:46;;;;;;;;;;;11.50;99.10;;;;;;5039073;28;20316;-77
2022/09/22 09:17:44;;;;;;;;;;;11.50;95.30;;;;;;5050560;28;19920;-78
2022/09/22 09:20:17;;;;;;;;;;;11.70;97.60;;;;;;5011255;28;19939;-77
2022/09/22 09:22:46;;;;;;;;;;;12.00;94.70;;;;;;5019144;28;20296;-76
2022/09/22 09:25:22;;;;;;;;;;;12.30;92.30;;;;;;5045381;28;20280;-77
2022/09/22 09:27:50;;;;;;;;;;;12.60;92.40;;;;;;5040006;28;19909;-78
2022/09/22 09:30:17;;;;;;;;;;;12.70;93.00;;;;;;5030642;28;19956;-77
2022/09/22 09:32:47;;;;;;;;;;;12.70;85.90;;;;;;5049197;28;19913;-77
2022/09/22 09:35:17;;;;;;;;;;;12.90;88.70;;;;;;5047407;28;20027;-77
2022/09/22 09:37:45;;;;;;;;;;;13.00;88.40;;;;;;5048995;28;19962;-77
2022/09/22 09:40:16;;;;;;;;;;;13.10;83.90;;;;;;5046602;28;19921;-77
2022/09/22 09:42:44;;;;;;;;;;;13.00;87.90;;;;;;5046974;28;19943;-77
2022/09/22 09:45:14;;;;;;;;;;;13.20;79.60;;;;;;5041861;28;19995;-77
2022/09/22 09:47:54;;;;;;;;;;;13.20;82.90;;;;;;5050746;28;20007;-77
2022/09/22 09:50:21;;;;;;;;;;;13.30;77.10;;;;;;5039475;28;20556;-77
2022/09/22 09:52:47;;;;;;;;;;;13.40;79.80;;;;;;5048997;28;19995;-77
2022/09/22 09:55:18;;;;;;;;;;;13.30;79.40;;;;;;5048329;28;20033;-77
2022/09/22 09:58:02;;;;;;;;;;;13.30;80.80;;;;;;5050737;28;19913;-77
2022/09/22 10:00:31;;;;;;;;;;;13.80;78.00;;;;;;5046565;28;20264;-77
2022/09/22 10:03:04;;;;;;;;;;;13.60;75.80;;;;;;5042758;28;20326;-77
2022/09/22 10:05:31;;;;;;;;;;;13.70;74.10;;;;;;5049445;28;19924;-77
2022/09/22 10:07:59;;;;;;;;;;;13.80;73.10;;;;;;5050504;28;19909;-77
2022/09/22 10:10:27;;;;;;;;;;;13.80;68.90;;;;;;5050735;28;19987;-79
2022/09/22 10:12:53;;;;;;;;;;;14.00;69.00;;;;;;5035345;28;19913;-77
2022/09/22 10:15:23;;;;;;;;;;;14.20;70.70;;;;;;5050478;28;19916;-77
2022/09/22 10:17:49;;;;;;;;;;;14.20;70.50;;;;;;5044747;28;19909;-77
2022/09/22 10:20:24;;;;;;;;;;;14.40;74.10;;;;;;5038209;28;19913;-77
2022/09/22 10:22:50;;;;;;;;;;;14.60;68.20;;;;;;5052302;28;19921;-77
2022/09/22 10:25:23;;;;;;;;;;;14.50;66.60;;;;;;5046446;28;19917;-77
2022/09/22 10:27:58;;;;;;;;;;;14.50;64.50;;;;;;5037648;28;19909;-77
2022/09/22 10:30:23;;;;;;;;;;;14.60;67.80;;;;;;5044421;28;19909;-78
2022/09/22 10:33:09;;;;;;;;;;;14.50;61.70;;;;;;5049092;28;19905;-77
2022/09/22 10:35:35;;;;;;;;;;;14.50;60.50;;;;;;5048754;28;19920;-77
2022/09/22 10:38:08;;;;;;;;;;;14.80;59.70;;;;;;5046044;28;19917;-77
2022/09/22 10:40:36;;;;;;;;;;;15.20;59.30;;;;;;5047231;28;19920;-77
2022/09/22 10:43:03;;;;;;;;;;;15.40;56.60;;;;;;5035986;28;20329;-77
2022/09/22 10:45:55;;;;;;;;;;;15.40;60.40;;;;;;5045086;28;19948;-77
2022/09/22 10:48:56;;;;;;;;;;;15.90;55.50;;;;;;5038981;28;20395;-76
2022/09/22 10:51:33;;;;;;;;;;;15.90;54.80;;;;;;4986642;28;19914;-76
2022/09/22 10:53:59;;;;;;;;;;;16.30;53.30;;;;;;5032188;28;19913;-77
2022/09/22 10:56:45;;;;;;;;;;;16.80;53.30;;;;;;5035029;28;20016;-75
2022/09/22 10:59:37;;;;;;;;;;;17.10;49.20;;;;;;5043165;28;19952;-73
2022/09/22 11:02:11;;;;;;;;;;;17.20;51.60;;;;;;5044464;28;20004;-73
2022/09/22 11:04:37;;;;;;;;;;;17.20;47.50;;;;;;5034186;28;19913;-74
2022/09/22 11:13:03;;;;;;;;;;;18.20;45.70;;;;;;5046154;28;20284;-73
2022/09/22 11:15:29;;;;;;;;;;;17.40;45.80;;;;;;5044679;28;19913;-73
2022/09/22 11:17:59;;;;;;;;;;;16.50;45.60;;;;;;5040964;28;19935;-73
2022/09/22 11:20:32;;;;;;;;;;;16.20;49.40;;;;;;5031828;28;19913;-73
2022/09/22 11:23:17;;;;;;;;;;;16.30;49.70;;;;;;5038940;28;19924;-73
2022/09/22 11:26:10;;;;;;;;;;;16.50;46.30;;;;;;5044499;28;19921;-73
2022/09/22 11:28:38;;;;;;;;;;;16.40;45.90;;;;;;5044803;28;19967;-73
2022/09/22 11:31:04;;;;;;;;;;;17.30;48.90;;;;;;5036039;28;19921;-74
2022/09/22 11:33:48;;;;;;;;;;;18.00;45.10;;;;;;5045670;28;20269;-74
2022/09/22 11:36:25;;;;;;;;;;;18.00;44.00;;;;;;5046398;28;19939;-74
2022/09/22 11:38:59;;;;;;;;;;;18.50;42.40;;;;;;5039323;28;19915;-74
2022/09/22 11:41:25;;;;;;;;;;;18.90;40.80;;;;;;5037908;28;19916;-74
2022/09/22 11:44:09;;;;;;;;;;;18.60;40.70;;;;;;5042462;28;19978;-74
2022/09/22 11:46:41;;;;;;;;;;;18.30;40.60;;;;;;5042896;28;19908;-74
2022/09/22 11:49:25;;;;;;;;;;;19.10;41.90;;;;;;5044736;28;19966;-74
2022/09/22 11:52:10;;;;;;;;;;;19.90;39.80;;;;;;5048921;28;19993;-74
2022/09/22 11:54:54;;;;;;;;;;;19.20;36.40;;;;;;5031186;28;19909;-75
2022/09/22 11:57:22;;;;;;;;;;;19.00;37.80;;;;;;5037930;28;19940;-74
2022/09/22 11:59:48;;;;;;;;;;;19.10;38.70;;;;;;5035743;28;20364;-75
2022/09/22 12:02:26;;;;;;;;;;;19.90;35.70;;;;;;5043812;28;19921;-74
2022/09/22 12:04:55;;;;;;;;;;;20.30;34.30;;;;;;5042504;28;19960;-74
2022/09/22 12:07:29;;;;;;;;;;;20.20;33.80;;;;;;5039853;28;20007;-74
2022/09/22 12:10:21;;;;;;;;;;;20.40;38.10;;;;;;5043028;28;19939;-78
2022/09/22 12:12:49;;;;;;;;;;;20.40;32.80;;;;;;5036449;28;20259;-75
2022/09/22 12:15:19;;;;;;;;;;;21.00;33.60;;;;;;5051013;28;19905;-75
2022/09/22 12:18:09;;;;;;;;;;;20.50;32.90;;;;;;5047804;28;19958;-75
2022/09/22 12:20:40;;;;;;;;;;;20.00;33.60;;;;;;5042940;28;19908;-75
2022/09/22 12:23:06;;;;;;;;;;;20.50;34.10;;;;;;5046378;28;19917;-75
2022/09/22 12:25:45;;;;;;;;;;;20.70;34.80;;;;;;5051799;28;20004;-74
2022/09/22 12:28:23;;;;;;;;;;;20.70;33.00;;;;;;5050916;28;19909;-74
2022/09/22 12:30:54;;;;;;;;;;;21.10;32.80;;;;;;5050022;28;19917;-75
2022/09/22 12:33:20;;;;;;;;;;;21.40;30.30;;;;;;5046569;28;19940;-75
2022/09/22 12:35:52;;;;;;;;;;;20.90;31.10;;;;;;5036519;28;19924;-75
2022/09/22 12:38:19;;;;;;;;;;;21.10;31.50;;;;;;5047163;28;19954;-76
2022/09/22 12:40:47;;;;;;;;;;;21.60;31.50;;;;;;5052023;28;19908;-75
2022/09/22 12:43:14;;;;;;;;;;;21.40;31.00;;;;;;5035134;28;19929;-75
2022/09/22 12:45:41;;;;;;;;;;;21.30;30.70;;;;;;5048430;28;19908;-75
2022/09/22 12:48:12;;;;;;;;;;;21.90;30.30;;;;;;5045289;28;20406;-75
2022/09/22 12:50:39;;;;;;;;;;;21.50;30.70;;;;;;5046631;28;19955;-76
2022/09/22 12:53:22;;;;;;;;;;;22.20;29.40;;;;;;5043107;28;19912;-75
2022/09/22 12:55:48;;;;;;;;;;;22.50;28.70;;;;;;5043405;28;19908;-75
2022/09/22 12:58:17;;;;;;;;;;;21.90;29.50;;;;;;5037360;28;20364;-73
2022/09/22 13:00:42;;;;;;;;;;;21.60;29.70;;;;;;5048720;28;20388;-75
2022/09/22 13:03:31;;;;;;;;;;;22.40;29.40;;;;;;5047935;28;19951;-74
2022/09/22 13:06:03;;;;;;;;;;;22.90;29.70;;;;;;5038161;28;19908;-75
2022/09/22 13:08:29;;;;;;;;;;;23.20;28.50;;;;;;5051835;28;20031;-74
2022/09/22 13:10:57;;;;;;;;;;;23.00;27.30;;;;;;5051144;28;20518;-75
2022/09/22 13:13:23;;;;;;;;;;;23.10;27.60;;;;;;5047661;28;19913;-76
2022/09/22 13:15:48;;;;;;;;;;;24.10;26.80;;;;;;5048784;28;19909;-75
2022/09/22 13:18:26;;;;;;;;;;;24.00;26.10;;;;;;5038456;28;19994;-75
2022/09/22 13:20:51;;;;;;;;;;;23.80;26.20;;;;;;5036377;28;20433;-74
2022/09/22 13:23:17;;;;;;;;;;;23.60;25.90;;;;;;5041921;28;19920;-75
2022/09/22 13:25:43;;;;;;;;;;;23.20;28.20;;;;;;5037019;28;19924;-74
2022/09/22 13:28:08;;;;;;;;;;;24.00;27.30;;;;;;5044349;28;19916;-74
2022/09/22 13:30:37;;;;;;;;;;;24.10;26.60;;;;;;5049136;28;19919;-75
2022/09/22 13:33:03;;;;;;;;;;;23.20;29.00;;;;;;5049363;28;19915;-74
2022/09/22 13:35:36;;;;;;;;;;;24.60;27.30;;;;;;5051202;28;19909;-75
2022/09/22 13:38:02;;;;;;;;;;;24.70;25.60;;;;;;5047662;28;19921;-75
2022/09/22 13:40:30;;;;;;;;;;;24.80;25.10;;;;;;5046226;28;20425;-76
2022/09/22 13:43:07;;;;;;;;;;;24.80;26.30;;;;;;5047616;28;19921;-74
2022/09/22 13:45:34;;;;;;;;;;;25.50;25.10;;;;;;5050831;28;19964;-74
2022/09/22 13:48:07;;;;;;;;;;;25.30;23.60;;;;;;5042442;28;19955;-74
2022/09/22 13:50:38;;;;;;;;;;;24.70;25.20;;;;;;5050782;28;19909;-74
2022/09/22 13:53:05;;;;;;;;;;;24.50;24.80;;;;;;5037345;28;19996;-74
2022/09/22 13:55:32;;;;;;;;;;;24.40;25.70;;;;;;5049628;28;19929;-74
2022/09/22 13:57:58;;;;;;;;;;;25.10;24.00;;;;;;5038401;28;20314;-75
2022/09/22 14:00:25;;;;;;;;;;;26.10;22.30;;;;;;5039531;28;20377;-75
2022/09/22 14:02:52;;;;;;;;;;;25.30;24.40;;;;;;5042396;28;19944;-74
2022/09/22 14:05:23;;;;;;;;;;;25.00;23.60;;;;;;5035931;28;19916;-74
2022/09/22 14:07:50;;;;;;;;;;;25.70;24.60;;;;;;5050644;28;20394;-73
2022/09/22 14:10:17;;;;;;;;;;;25.40;24.00;;;;;;5046301;28;19916;-73
2022/09/22 14:12:43;;;;;;;;;;;25.00;24.50;;;;;;5034165;28;19913;-74
2022/09/22 14:15:28;;;;;;;;;;;25.10;23.90;;;;;;5045541;28;19952;-74
2022/09/22 14:17:57;;;;;;;;;;;24.90;23.40;;;;;;5049098;28;20325;-74
2022/09/22 14:20:23;;;;;;;;;;;25.40;23.70;;;;;;5040131;28;20461;-74
2022/09/22 14:22:49;;;;;;;;;;;25.00;23.40;;;;;;5021058;28;19928;-74
2022/09/22 14:25:20;;;;;;;;;;;25.20;24.20;;;;;;5048285;28;19917;-74
2022/09/22 14:27:48;;;;;;;;;;;25.30;23.40;;;;;;5048114;28;19917;-75
2022/09/22 14:30:15;;;;;;;;;;;26.30;22.70;;;;;;5038024;28;19909;-77
2022/09/22 14:32:49;;;;;;;;;;;26.60;22.90;;;;;;5044810;28;19912;-77
2022/09/22 14:35:36;;;;;;;;;;;25.80;23.50;;;;;;5040931;28;19924;-75
2022/09/22 14:38:03;;;;;;;;;;;25.30;23.90;;;;;;5033067;28;20252;-74
2022/09/22 14:40:28;;;;;;;;;;;25.30;24.20;;;;;;5044369;28;19955;-75
2022/09/22 14:43:07;;;;;;;;;;;24.90;24.40;;;;;;5044774;28;19928;-75
2022/09/22 14:45:34;;;;;;;;;;;26.70;24.50;;;;;;5047904;28;19928;-76
2022/09/22 14:48:09;;;;;;;;;;;25.80;22.90;;;;;;5040263;28;20007;-75
2022/09/22 14:50:37;;;;;;;;;;;24.20;24.30;;;;;;5036580;28;19957;-75